Time;durP1;ratioP1;P1;durP2;ratioP2;P2;SDS_P1;SDS_P2;PMS_P1;PMS_P2;Temp;Humidity;BMP_temperature;BMP_pressure;BME280_temperature;BME280_humidity;BME280_pressure;Samples;Min_cycle;Max_cycle;Signal;HPM_P1;HPM_P2
2022/12/17 13:06:40;;;;;;;94.55;22.08;;;-1.60;99.90;;;;;;5023078;28;20161;-85
2022/12/17 13:09:14;;;;;;;86.55;19.67;;;-1.70;99.90;;;;;;5022011;28;20212;-86
2022/12/17 13:11:41;;;;;;;94.68;23.05;;;-1.60;99.90;;;;;;5021656;28;20189;-87
2022/12/17 13:14:16;;;;;;;89.53;22.90;;;-1.60;99.90;;;;;;5021541;28;20173;-87
2022/12/17 13:17:16;;;;;;;101.13;24.05;;;-1.60;99.90;;;;;;5022508;28;20157;-87
2022/12/17 13:20:19;;;;;;;87.10;22.02;;;-1.50;99.90;;;;;;5021777;28;20162;-86
2022/12/17 13:23:03;;;;;;;88.10;21.40;;;-1.50;99.90;;;;;;5020956;28;20248;-86
2022/12/17 13:25:29;;;;;;;87.03;20.00;;;-1.50;99.90;;;;;;5023232;28;20296;-87
2022/12/17 13:27:55;;;;;;;92.57;21.90;;;-1.40;99.90;;;;;;5021116;28;20240;-85
2022/12/17 13:30:34;;;;;;;93.60;22.30;;;-1.30;99.90;;;;;;5020333;28;20449;-87
2022/12/17 13:33:26;;;;;;;84.75;19.95;;;-1.30;99.90;;;;;;5022532;28;20150;-87
2022/12/17 13:36:03;;;;;;;86.60;18.50;;;-1.40;99.90;;;;;;5022221;28;20158;-87
2022/12/17 13:38:48;;;;;;;92.43;18.70;;;-1.30;99.90;;;;;;5021788;28;20161;-86
2022/12/17 13:41:25;;;;;;;88.63;19.08;;;-1.40;99.90;;;;;;5019861;28;20328;-87
2022/12/17 13:43:56;;;;;;;92.68;23.50;;;-1.40;99.90;;;;;;5020384;28;20158;-86
2022/12/17 13:46:29;;;;;;;90.57;20.77;;;-1.50;99.90;;;;;;5020828;28;20206;-86
2022/12/17 13:49:04;;;;;;;86.20;19.60;;;-1.40;99.90;;;;;;5020287;28;20173;-86
2022/12/17 13:51:33;;;;;;;88.40;21.52;;;-1.40;99.90;;;;;;5019675;28;20213;-85
2022/12/17 13:54:01;;;;;;;90.82;22.58;;;-1.40;99.90;;;;;;5017872;28;20260;-85
2022/12/17 13:56:36;;;;;;;88.82;22.65;;;-1.50;99.90;;;;;;5018762;28;20165;-85
2022/12/17 13:59:04;;;;;;;86.50;20.17;;;-1.50;99.90;;;;;;5017227;28;20157;-85
2022/12/17 14:01:31;;;;;;;93.00;20.48;;;-1.50;99.90;;;;;;5019270;28;20186;-86
2022/12/17 14:04:00;;;;;;;89.72;21.60;;;-1.40;99.90;;;;;;5017206;28;20222;-85
2022/12/17 14:06:33;;;;;;;91.55;21.40;;;-1.40;99.90;;;;;;5019301;28;20527;-85
2022/12/17 14:09:00;;;;;;;96.25;22.70;;;-1.40;99.90;;;;;;5017679;28;20521;-86
2022/12/17 14:14:25;;;;;;;86.13;19.70;;;-1.40;99.90;;;;;;5019612;28;20637;-86
2022/12/17 14:16:51;;;;;;;94.05;22.13;;;-1.40;99.90;;;;;;5019408;28;20169;-85
2022/12/17 14:19:20;;;;;;;89.53;21.03;;;-1.40;99.90;;;;;;5018579;28;20661;-86
2022/12/17 14:21:46;;;;;;;95.20;20.77;;;-1.50;99.90;;;;;;5019520;28;20189;-86
2022/12/17 14:24:13;;;;;;;93.18;21.85;;;-1.40;99.90;;;;;;5019089;28;20166;-87
2022/12/17 14:26:53;;;;;;;91.38;24.45;;;-1.50;99.90;;;;;;5019384;28;20201;-87
2022/12/17 14:29:28;;;;;;;91.53;21.98;;;-1.40;99.90;;;;;;5019415;28;20240;-86
2022/12/17 14:32:00;;;;;;;94.97;22.88;;;-1.40;99.90;;;;;;5020634;28;20245;-87
2022/12/17 14:34:26;;;;;;;88.57;20.10;;;-1.50;99.90;;;;;;5022032;28;20154;-88
2022/12/17 14:36:58;;;;;;;88.87;22.00;;;-1.50;99.90;;;;;;5019607;28;20173;-87
2022/12/17 14:39:29;;;;;;;91.40;22.23;;;-1.60;99.90;;;;;;5021730;28;20169;-87
2022/12/17 14:44:52;;;;;;;93.90;20.95;;;-1.60;99.90;;;;;;5021275;28;20173;-88
2022/12/17 14:47:22;;;;;;;90.35;22.10;;;-1.50;99.90;;;;;;5019451;28;20190;-87
2022/12/17 14:50:13;;;;;;;89.38;20.80;;;-1.60;99.90;;;;;;5019520;28;20166;-87
2022/12/17 14:52:47;;;;;;;95.57;23.00;;;-1.70;99.90;;;;;;5018925;28;20150;-88
2022/12/17 14:55:38;;;;;;;91.68;22.27;;;-1.70;99.90;;;;;;5018380;28;20168;-88
2022/12/17 14:58:14;;;;;;;94.85;21.75;;;-1.70;99.90;;;;;;5018754;28;20196;-87
2022/12/17 15:01:02;;;;;;;91.63;21.23;;;-1.70;99.90;;;;;;5017856;28;20200;-87
2022/12/17 15:03:31;;;;;;;93.13;23.15;;;-1.70;99.90;;;;;;5009937;28;20261;-87
2022/12/17 15:06:01;;;;;;;91.55;20.52;;;-1.70;99.90;;;;;;5017724;28;20573;-88
2022/12/17 15:08:34;;;;;;;88.80;20.88;;;-1.70;99.90;;;;;;5016778;28;20569;-87
2022/12/17 15:11:00;;;;;;;90.75;21.85;;;-1.80;99.90;;;;;;5021745;28;20237;-87
2022/12/17 15:13:26;;;;;;;96.55;24.00;;;-1.90;99.90;;;;;;5021432;28;20164;-88
2022/12/17 15:15:52;;;;;;;96.40;21.53;;;-1.90;99.90;;;;;;5020705;28;20166;-87
2022/12/17 15:18:18;;;;;;;88.93;21.40;;;-1.90;99.90;;;;;;5021391;28;20181;-86
2022/12/17 15:20:44;;;;;;;93.27;22.63;;;-1.90;99.90;;;;;;5021890;28;20209;-87
2022/12/17 15:23:17;;;;;;;93.50;25.10;;;-1.90;99.90;;;;;;5020640;28;20174;-88
2022/12/17 15:25:44;;;;;;;91.82;19.65;;;-1.90;99.90;;;;;;5022048;28;20218;-87
2022/12/17 15:28:10;;;;;;;95.63;21.50;;;-1.70;99.90;;;;;;5021717;28;20235;-87
2022/12/17 15:30:37;;;;;;;93.85;20.13;;;-1.80;99.90;;;;;;5018925;28;20198;-87
2022/12/17 15:33:03;;;;;;;94.45;20.90;;;-1.70;99.90;;;;;;5018957;28;20569;-87
2022/12/17 15:35:29;;;;;;;95.87;21.43;;;-1.80;99.90;;;;;;5019589;28;20166;-87
2022/12/17 15:37:54;;;;;;;90.68;19.13;;;-1.80;99.90;;;;;;5019796;28;20401;-87
2022/12/17 15:40:20;;;;;;;93.93;19.13;;;-1.80;99.90;;;;;;5019934;28;20731;-86
2022/12/17 15:45:32;;;;;;;87.50;18.50;;;-1.90;99.90;;;;;;5021661;28;20210;-86
2022/12/17 15:47:57;;;;;;;93.90;22.83;;;-2.00;99.90;;;;;;5020549;28;20194;-87
2022/12/17 15:50:23;;;;;;;93.40;20.33;;;-2.00;99.90;;;;;;5020952;28;20680;-87
2022/12/17 15:52:49;;;;;;;89.07;21.00;;;-2.10;99.90;;;;;;5021698;28;20240;-86
2022/12/17 15:55:18;;;;;;;91.97;25.10;;;-2.20;99.90;;;;;;5022448;28;20321;-87
2022/12/17 15:57:43;;;;;;;96.20;22.25;;;-2.30;99.90;;;;;;5022111;28;20423;-86
2022/12/17 16:00:10;;;;;;;96.50;24.57;;;-2.30;99.90;;;;;;5021024;28;20205;-86
2022/12/17 16:02:36;;;;;;;93.05;22.52;;;-2.30;99.90;;;;;;5004691;28;20186;-87
2022/12/17 16:05:02;;;;;;;98.53;25.40;;;-2.30;99.90;;;;;;5021703;28;20233;-87
2022/12/17 16:07:28;;;;;;;90.00;22.57;;;-2.30;99.90;;;;;;5022948;28;20190;-88
2022/12/17 16:09:53;;;;;;;94.37;23.70;;;-2.30;99.90;;;;;;5021351;28;20408;-86
2022/12/17 16:12:19;;;;;;;90.77;23.27;;;-2.30;99.90;;;;;;5022394;28;20174;-87
2022/12/17 16:14:45;;;;;;;94.95;24.73;;;-2.30;99.90;;;;;;5022562;28;20552;-86
2022/12/17 16:17:11;;;;;;;92.87;20.87;;;-2.30;99.90;;;;;;5022638;28;20173;-87
2022/12/17 16:19:36;;;;;;;88.80;21.87;;;-2.40;99.90;;;;;;5020789;28;20533;-87
2022/12/17 16:22:02;;;;;;;90.67;23.30;;;-2.30;99.90;;;;;;5021705;28;20838;-87
2022/12/17 16:24:28;;;;;;;88.90;22.27;;;-2.40;99.90;;;;;;5020797;28;20554;-88
2022/12/17 16:26:54;;;;;;;93.73;24.30;;;-2.50;99.90;;;;;;5020816;28;20193;-87
2022/12/17 16:29:20;;;;;;;99.30;24.13;;;-2.50;99.90;;;;;;5022094;28;20241;-86
2022/12/17 16:31:45;;;;;;;89.40;23.10;;;-2.50;99.90;;;;;;5020822;28;20455;-86
2022/12/17 16:34:12;;;;;;;93.77;23.00;;;-2.50;99.90;;;;;;5021776;28;20162;-86
2022/12/17 16:36:38;;;;;;;93.22;20.52;;;-2.60;99.90;;;;;;5022778;28;20166;-86
2022/12/17 16:39:04;;;;;;;89.70;21.47;;;-2.50;99.90;;;;;;5021887;28;20170;-87
2022/12/17 16:41:30;;;;;;;85.47;20.48;;;-2.70;99.90;;;;;;5022887;28;20427;-86
2022/12/17 16:43:56;;;;;;;95.75;24.17;;;-2.70;99.90;;;;;;5022717;28;20166;-87
2022/12/17 16:46:28;;;;;;;87.20;21.47;;;-2.70;99.90;;;;;;5022996;28;20198;-86
2022/12/17 16:48:56;;;;;;;99.43;27.40;;;-2.70;99.90;;;;;;5021298;28;20162;-86
2022/12/17 16:51:24;;;;;;;89.65;24.02;;;-2.70;99.90;;;;;;5022759;28;20182;-86
2022/12/17 16:53:50;;;;;;;95.43;22.25;;;-2.70;99.90;;;;;;5023351;28;20169;-87
2022/12/17 16:56:18;;;;;;;94.80;21.30;;;-2.60;99.90;;;;;;5021208;28;20166;-88
2022/12/17 16:58:47;;;;;;;93.40;23.52;;;-2.60;99.90;;;;;;5022819;28;20258;-86
2022/12/17 17:01:18;;;;;;;87.00;21.98;;;-2.70;99.90;;;;;;5023843;28;20666;-86
2022/12/17 17:03:43;;;;;;;86.95;19.80;;;-2.80;99.90;;;;;;5023526;28;20146;-86
2022/12/17 17:06:09;;;;;;;86.97;21.30;;;-2.70;99.90;;;;;;5021472;28;20169;-87
2022/12/17 17:08:37;;;;;;;93.50;22.93;;;-2.80;99.90;;;;;;5021610;28;20166;-87
2022/12/17 17:11:10;;;;;;;93.97;23.15;;;-2.80;99.90;;;;;;5019741;28;20678;-86
2022/12/17 17:13:36;;;;;;;93.20;25.05;;;-2.80;99.90;;;;;;5019849;28;20169;-87
2022/12/17 17:16:02;;;;;;;96.15;24.75;;;-2.80;99.90;;;;;;5022076;28;20226;-87
2022/12/17 17:18:31;;;;;;;94.80;26.95;;;-2.90;99.90;;;;;;5020460;28;20731;-86
2022/12/17 17:21:13;;;;;;;97.75;26.27;;;-2.80;99.90;;;;;;5020364;28;20189;-87
2022/12/17 17:23:39;;;;;;;98.88;25.73;;;-2.90;99.90;;;;;;5020097;28;20172;-88
2022/12/17 17:26:05;;;;;;;92.43;26.63;;;-2.90;99.90;;;;;;5020443;28;20173;-88
2022/12/17 17:28:31;;;;;;;93.47;24.52;;;-2.90;99.90;;;;;;5021963;28;20277;-88
2022/12/17 17:31:28;;;;;;;86.57;24.47;;;-3.00;99.90;;;;;;5035775;23;20218;-86
2022/12/17 17:33:57;;;;;;;91.35;25.48;;;-3.10;99.90;;;;;;5024571;28;20984;-86
2022/12/17 17:36:45;;;;;;;91.10;25.67;;;-3.10;99.90;;;;;;5023472;28;20170;-85
2022/12/17 17:39:17;;;;;;;100.43;28.67;;;-3.10;99.90;;;;;;5024417;28;20197;-86
2022/12/17 17:42:09;;;;;;;94.82;24.45;;;-3.00;99.90;;;;;;5025486;28;20220;-86
2022/12/17 17:44:51;;;;;;;90.18;20.58;;;-3.00;99.90;;;;;;5002833;28;20179;-85
2022/12/17 17:47:20;;;;;;;99.68;21.95;;;-3.00;99.90;;;;;;5002431;28;20753;-86
2022/12/17 17:49:54;;;;;;;91.97;23.65;;;-3.10;99.90;;;;;;5010765;28;20178;-85
2022/12/17 17:52:30;;;;;;;93.75;22.95;;;-3.10;99.90;;;;;;5022925;28;20181;-86
2022/12/17 17:54:56;;;;;;;101.70;24.90;;;-3.20;99.90;;;;;;5024147;28;20554;-85
2022/12/17 17:57:25;;;;;;;101.23;26.33;;;-3.10;99.90;;;;;;5021897;28;20215;-86
2022/12/17 17:59:53;;;;;;;91.82;25.75;;;-3.20;99.90;;;;;;5023574;28;20405;-85
2022/12/17 18:02:22;;;;;;;97.35;22.45;;;-3.10;99.90;;;;;;5022871;28;20192;-86
2022/12/17 18:04:47;;;;;;;90.20;23.90;;;-3.10;99.90;;;;;;5024079;28;20196;-86
2022/12/17 18:07:13;;;;;;;92.57;24.07;;;-3.10;99.90;;;;;;5024498;28;20213;-86
2022/12/17 18:09:44;;;;;;;94.53;23.50;;;-3.20;99.90;;;;;;5025859;28;20661;-85
2022/12/17 18:15:03;;;;;;;92.75;22.40;;;-3.20;99.90;;;;;;5026905;28;20197;-86
2022/12/17 18:17:31;;;;;;;94.78;22.30;;;-3.20;99.90;;;;;;5026019;28;20247;-85
2022/12/17 18:20:03;;;;;;;86.97;21.15;;;-3.20;99.90;;;;;;5026274;28;20174;-85
2022/12/17 18:22:32;;;;;;;94.15;24.60;;;-3.20;99.90;;;;;;5025158;28;20300;-86
2022/12/17 18:25:08;;;;;;;95.85;25.20;;;-3.30;99.90;;;;;;5026167;28;20157;-86
2022/12/17 18:27:57;;;;;;;94.82;24.95;;;-3.40;99.90;;;;;;5024935;28;20199;-86
2022/12/17 18:30:25;;;;;;;92.75;27.67;;;-3.40;99.90;;;;;;5022705;28;20244;-86
2022/12/17 18:32:53;;;;;;;94.57;26.67;;;-3.40;99.90;;;;;;5022202;28;20166;-86
2022/12/17 18:35:26;;;;;;;92.82;25.75;;;-3.40;99.90;;;;;;5023779;28;20216;-86
2022/12/17 18:37:54;;;;;;;88.97;28.35;;;-3.40;99.90;;;;;;5025552;28;20153;-86
2022/12/17 18:40:26;;;;;;;94.28;28.25;;;-3.50;99.90;;;;;;5024659;28;20193;-85
2022/12/17 18:45:37;;;;;;;86.53;26.67;;;-3.50;99.90;;;;;;5025100;28;20164;-86
2022/12/17 18:48:04;;;;;;;96.72;27.15;;;-3.50;99.90;;;;;;5024421;28;20197;-86
2022/12/17 18:50:29;;;;;;;93.03;27.33;;;-3.40;99.90;;;;;;5024177;28;20182;-86
2022/12/17 18:52:58;;;;;;;99.63;28.57;;;-3.50;99.90;;;;;;5024652;28;20166;-86
2022/12/17 18:55:32;;;;;;;100.60;28.63;;;-3.50;99.90;;;;;;5024362;28;20390;-86
2022/12/17 18:57:57;;;;;;;95.88;27.67;;;-3.50;99.90;;;;;;5025155;28;20162;-85
2022/12/17 19:00:23;;;;;;;94.30;25.13;;;-3.50;99.90;;;;;;5023987;28;20610;-86
2022/12/17 19:02:52;;;;;;;99.87;28.73;;;-3.60;99.90;;;;;;5025365;28;20154;-86
2022/12/17 19:05:17;;;;;;;96.63;27.90;;;-3.60;99.90;;;;;;5024448;28;20463;-86
2022/12/17 19:07:46;;;;;;;98.33;28.50;;;-3.70;99.90;;;;;;5024867;28;20249;-85
2022/12/17 19:10:12;;;;;;;97.40;28.67;;;-3.60;99.90;;;;;;5025016;28;20162;-85
2022/12/17 19:12:38;;;;;;;101.67;28.20;;;-3.70;99.90;;;;;;5023511;28;20252;-86
2022/12/17 19:15:04;;;;;;;92.47;23.90;;;-3.60;99.90;;;;;;5022836;28;20173;-86
2022/12/17 19:17:29;;;;;;;96.43;25.80;;;-3.60;99.90;;;;;;5023848;28;20392;-86
2022/12/17 19:19:55;;;;;;;97.83;27.03;;;-3.50;99.90;;;;;;5024082;28;20185;-85
2022/12/17 19:22:21;;;;;;;94.33;27.00;;;-3.60;99.90;;;;;;5024240;28;20177;-86
2022/12/17 19:24:46;;;;;;;94.50;25.00;;;-3.60;99.90;;;;;;5022865;28;20611;-85
2022/12/17 19:27:12;;;;;;;101.20;24.33;;;-3.50;99.90;;;;;;5024267;28;20181;-85
2022/12/17 19:29:38;;;;;;;93.53;26.87;;;-3.50;99.90;;;;;;5022037;28;20688;-85
2022/12/17 19:32:04;;;;;;;92.40;26.30;;;-3.70;99.90;;;;;;5023028;28;20201;-86
2022/12/17 19:34:31;;;;;;;94.37;25.97;;;-3.70;99.90;;;;;;5023403;28;20405;-85
2022/12/17 19:36:56;;;;;;;91.45;27.75;;;-3.70;99.90;;;;;;5023275;28;20184;-85
2022/12/17 19:39:22;;;;;;;91.23;27.37;;;-3.70;99.90;;;;;;5022219;28;20689;-85
2022/12/17 19:41:49;;;;;;;92.67;28.43;;;-3.80;99.90;;;;;;5022578;28;20197;-86
2022/12/17 19:44:16;;;;;;;95.18;26.80;;;-3.80;99.90;;;;;;5024520;28;20169;-85
2022/12/17 19:46:43;;;;;;;92.80;27.00;;;-3.80;99.90;;;;;;5023770;28;20228;-86
2022/12/17 19:49:13;;;;;;;102.90;27.52;;;-3.90;99.90;;;;;;5023970;28;20260;-86
2022/12/17 19:51:40;;;;;;;100.00;31.67;;;-3.80;99.90;;;;;;5025353;28;20180;-85
2022/12/17 19:54:10;;;;;;;93.50;30.45;;;-3.90;99.90;;;;;;5025880;28;20162;-86
2022/12/17 19:56:36;;;;;;;95.53;30.85;;;-3.90;99.90;;;;;;5024352;28;20652;-86
2022/12/17 19:59:05;;;;;;;102.28;27.25;;;-3.80;99.90;;;;;;5025712;28;20205;-86
2022/12/17 20:01:33;;;;;;;97.45;29.40;;;-3.90;99.90;;;;;;5024266;28;20196;-86
2022/12/17 20:04:02;;;;;;;92.40;29.35;;;-3.90;99.90;;;;;;5023610;28;20588;-86
2022/12/17 20:06:33;;;;;;;94.45;27.58;;;-3.90;99.90;;;;;;5024165;28;20178;-85
2022/12/17 20:09:03;;;;;;;98.93;30.05;;;-3.80;99.90;;;;;;5021302;28;20178;-85
2022/12/17 20:11:34;;;;;;;98.55;29.65;;;-3.80;99.90;;;;;;5022679;28;20231;-85
2022/12/17 20:14:30;;;;;;;97.40;29.40;;;-3.90;99.90;;;;;;5024397;28;20233;-85
2022/12/17 20:16:58;;;;;;;88.82;25.75;;;-3.80;99.90;;;;;;5024429;28;20621;-85
2022/12/17 20:19:29;;;;;;;101.75;28.80;;;-3.80;99.90;;;;;;5023511;28;20173;-85
2022/12/17 20:21:56;;;;;;;98.25;29.02;;;-3.80;99.90;;;;;;5022555;28;20208;-85
2022/12/17 20:24:22;;;;;;;97.00;26.10;;;-3.80;99.90;;;;;;5022988;28;20246;-86
2022/12/17 20:26:50;;;;;;;91.78;27.55;;;-3.70;99.90;;;;;;5022878;28;20245;-86
2022/12/17 20:29:20;;;;;;;89.45;25.58;;;-3.70;99.90;;;;;;5021366;28;20664;-85
2022/12/17 20:31:47;;;;;;;93.95;28.55;;;-3.70;99.90;;;;;;5022273;28;20237;-86
2022/12/17 20:34:14;;;;;;;90.47;25.50;;;-3.80;99.90;;;;;;5025833;28;20177;-86
2022/12/17 20:36:40;;;;;;;93.63;27.33;;;-3.80;99.90;;;;;;5025639;28;20173;-86
2022/12/17 20:39:07;;;;;;;92.20;25.38;;;-3.90;99.90;;;;;;5024868;28;20169;-86
2022/12/17 20:41:43;;;;;;;88.03;22.38;;;-3.90;99.90;;;;;;5027128;28;20196;-85
2022/12/17 20:44:14;;;;;;;93.93;27.70;;;-3.90;99.90;;;;;;5026406;28;20169;-86
2022/12/17 20:46:40;;;;;;;91.70;24.40;;;-3.90;99.90;;;;;;5008482;28;20198;-86
2022/12/17 20:49:06;;;;;;;98.95;27.88;;;-3.90;99.90;;;;;;5025545;28;20173;-86
2022/12/17 20:51:32;;;;;;;89.22;25.50;;;-3.90;99.90;;;;;;5024714;28;20256;-85
2022/12/17 20:54:00;;;;;;;96.65;26.85;;;-4.00;99.90;;;;;;5025041;28;20169;-86
2022/12/17 20:56:31;;;;;;;90.57;23.55;;;-3.90;99.90;;;;;;5026154;28;20170;-86
2022/12/17 20:59:01;;;;;;;94.78;27.35;;;-3.90;99.90;;;;;;5024815;28;20182;-85
2022/12/17 21:01:28;;;;;;;88.80;25.35;;;-3.90;99.90;;;;;;5025140;28;20192;-85
2022/12/17 21:03:55;;;;;;;92.13;24.67;;;-3.90;99.90;;;;;;5024897;28;20523;-85
2022/12/17 21:06:26;;;;;;;93.30;24.50;;;-4.00;99.90;;;;;;5026525;28;20221;-86
2022/12/17 21:08:53;;;;;;;101.15;24.92;;;-3.90;99.90;;;;;;5026358;28;20213;-85
2022/12/17 21:11:22;;;;;;;97.88;23.13;;;-4.00;99.90;;;;;;5025750;28;20186;-85
2022/12/17 21:13:48;;;;;;;89.18;25.40;;;-4.00;99.90;;;;;;5024273;28;20637;-85
2022/12/17 21:16:26;;;;;;;90.47;23.20;;;-4.10;99.90;;;;;;5024757;28;20170;-85
2022/12/17 21:18:53;;;;;;;93.00;28.48;;;-4.10;99.90;;;;;;5024692;28;20641;-85
2022/12/17 21:21:22;;;;;;;92.30;26.55;;;-4.10;99.90;;;;;;5025053;28;20193;-85
2022/12/17 21:23:49;;;;;;;88.22;24.48;;;-4.10;99.90;;;;;;5025750;28;20212;-86
2022/12/17 21:26:18;;;;;;;93.47;26.45;;;-4.10;99.90;;;;;;5025842;28;20193;-86
2022/12/17 21:28:45;;;;;;;100.00;26.00;;;-4.10;99.90;;;;;;5025154;28;20174;-86
2022/12/17 21:31:20;;;;;;;93.00;23.70;;;-4.10;99.90;;;;;;5025839;28;20206;-85
2022/12/17 21:33:46;;;;;;;97.70;28.88;;;-4.10;99.90;;;;;;5027140;28;20200;-86
2022/12/17 21:36:13;;;;;;;96.10;26.42;;;-4.10;99.90;;;;;;5025238;28;20170;-86
2022/12/17 21:38:39;;;;;;;96.80;28.33;;;-4.00;99.90;;;;;;5026391;28;20170;-85
2022/12/17 21:41:11;;;;;;;90.95;26.20;;;-4.10;99.90;;;;;;5027073;28;20661;-85
2022/12/17 21:43:38;;;;;;;91.82;25.45;;;-4.10;99.90;;;;;;5025944;28;20170;-85
2022/12/17 21:46:07;;;;;;;87.00;25.92;;;-4.20;99.90;;;;;;5025402;28;20178;-85
2022/12/17 21:48:39;;;;;;;90.80;23.30;;;-4.10;99.90;;;;;;5027538;28;20561;-85
2022/12/17 21:51:10;;;;;;;93.45;25.95;;;-4.10;99.90;;;;;;5025838;28;20228;-85
2022/12/17 21:53:41;;;;;;;86.10;22.70;;;-4.20;99.90;;;;;;5026986;28;20155;-86
2022/12/17 21:56:10;;;;;;;89.80;21.77;;;-4.20;99.90;;;;;;5025557;28;20185;-85
2022/12/17 21:58:36;;;;;;;89.50;21.58;;;-4.20;99.90;;;;;;5025662;28;20188;-85
2022/12/17 22:01:17;;;;;;;92.17;22.60;;;-4.10;99.90;;;;;;5025426;28;20182;-85
2022/12/17 22:03:45;;;;;;;89.65;23.80;;;-4.10;99.90;;;;;;5023550;28;20440;-85
2022/12/17 22:06:13;;;;;;;90.45;25.52;;;-4.20;99.90;;;;;;5026673;28;20162;-85
2022/12/17 22:08:46;;;;;;;94.78;26.92;;;-4.20;99.90;;;;;;5024983;28;20662;-85
2022/12/17 22:11:15;;;;;;;97.50;24.95;;;-4.30;99.90;;;;;;5024794;28;20672;-85
2022/12/17 22:16:31;;;;;;;102.88;26.25;;;-4.30;99.90;;;;;;5025289;28;20172;-85
2022/12/17 22:18:58;;;;;;;90.80;26.17;;;-4.40;99.90;;;;;;5024152;28;20251;-85
2022/12/17 22:21:24;;;;;;;94.53;26.58;;;-4.40;99.90;;;;;;5024489;28;20580;-85
2022/12/17 22:23:50;;;;;;;91.80;23.77;;;-4.40;99.90;;;;;;5025727;28;20169;-86
2022/12/17 22:26:17;;;;;;;88.57;27.00;;;-4.40;99.90;;;;;;5024453;28;20225;-85
2022/12/17 22:28:48;;;;;;;87.95;22.60;;;-4.30;99.90;;;;;;5024718;28;20496;-86
2022/12/17 22:34:03;;;;;;;94.63;22.60;;;-4.30;99.90;;;;;;5024753;28;20184;-86
2022/12/17 22:36:31;;;;;;;92.40;25.60;;;-4.30;99.90;;;;;;5023522;28;20573;-86
2022/12/17 22:39:01;;;;;;;89.65;22.67;;;-4.30;99.90;;;;;;5024524;28;20229;-85
2022/12/17 22:44:12;;;;;;;87.90;21.90;;;-4.40;99.90;;;;;;5025605;28;20153;-86
2022/12/17 22:46:38;;;;;;;87.00;21.67;;;-4.30;99.90;;;;;;5024319;28;20157;-85
2022/12/17 22:49:03;;;;;;;91.60;22.27;;;-4.20;99.90;;;;;;5023590;28;20199;-86
2022/12/17 22:51:31;;;;;;;86.63;21.37;;;-4.30;99.90;;;;;;5024160;28;20185;-85
2022/12/17 22:54:03;;;;;;;92.10;20.70;;;-4.20;99.90;;;;;;5024185;28;20561;-85
2022/12/17 22:56:29;;;;;;;93.55;21.02;;;-4.20;99.90;;;;;;5021603;28;20312;-86
2022/12/17 22:58:55;;;;;;;89.27;20.07;;;-4.20;99.90;;;;;;5023374;28;20178;-85
2022/12/17 23:01:21;;;;;;;83.38;20.70;;;-4.30;99.90;;;;;;5022919;28;20472;-86
2022/12/17 23:03:47;;;;;;;89.30;20.07;;;-4.30;99.90;;;;;;5022860;28;20202;-85
2022/12/17 23:06:17;;;;;;;84.90;17.37;;;-4.20;99.90;;;;;;5022181;28;20513;-85
2022/12/17 23:08:43;;;;;;;91.90;20.33;;;-4.30;99.90;;;;;;5021928;28;20339;-85
2022/12/17 23:11:13;;;;;;;90.03;21.58;;;-4.20;99.90;;;;;;5023420;28;20192;-85
2022/12/17 23:13:39;;;;;;;86.20;18.33;;;-4.20;99.90;;;;;;5025779;28;20162;-85
2022/12/17 23:16:05;;;;;;;84.70;18.88;;;-4.20;99.90;;;;;;5023921;28;20166;-85
2022/12/17 23:18:31;;;;;;;90.32;20.65;;;-4.20;99.90;;;;;;5024997;28;20197;-85
2022/12/17 23:21:11;;;;;;;90.17;18.93;;;-4.20;99.90;;;;;;5024478;28;20185;-85
2022/12/17 23:23:38;;;;;;;85.07;18.02;;;-4.20;99.90;;;;;;5024829;28;20543;-85
2022/12/17 23:26:24;;;;;;;91.07;20.38;;;-4.30;99.90;;;;;;5025278;28;20174;-85
2022/12/17 23:29:00;;;;;;;84.78;18.75;;;-4.30;99.90;;;;;;5023367;28;20162;-85
2022/12/17 23:31:28;;;;;;;84.70;19.98;;;-4.30;99.90;;;;;;5064069;23;20698;-87
2022/12/17 23:33:54;;;;;;;85.70;22.40;;;-4.30;99.90;;;;;;4975661;28;20163;-87
2022/12/17 23:36:22;;;;;;;91.15;24.52;;;-4.30;99.90;;;;;;4974626;28;20177;-87
2022/12/17 23:38:49;;;;;;;86.53;27.10;;;-4.30;99.90;;;;;;4975603;28;20167;-87
2022/12/17 23:41:20;;;;;;;88.93;30.10;;;-4.30;99.90;;;;;;4974379;28;20195;-87
2022/12/17 23:43:47;;;;;;;84.60;20.98;;;-4.30;99.90;;;;;;4974803;28;20151;-87
2022/12/17 23:46:13;;;;;;;83.93;20.48;;;-4.20;99.90;;;;;;4974579;28;20520;-87
2022/12/17 23:48:43;;;;;;;83.35;22.30;;;-4.20;99.90;;;;;;4975015;28;20210;-87
2022/12/17 23:51:10;;;;;;;85.22;20.80;;;-4.20;99.90;;;;;;4974215;28;20563;-87
2022/12/17 23:53:37;;;;;;;88.32;28.42;;;-4.20;99.90;;;;;;4976254;28;20255;-87
2022/12/17 23:56:11;;;;;;;85.38;19.77;;;-4.20;99.90;;;;;;4975342;28;20186;-87
2022/12/17 23:58:38;;;;;;;84.60;22.77;;;-4.20;99.90;;;;;;4976461;28;20558;-87
